Terminal Aerodrome Forecast
Issued by NWS

Home | Current Version | Previous Version | Text Only | Print | Product List | Glossary Off
Versions: 1 2 3 4 5 6 7 8 9 10 11 12 13 14 15 16 17 18 19 20 21 22 23 24 25 26 27 28

000
FTUS45 KGGW 261720
TAFGDV
TAF
KGDV 261720Z 2618/2718 28009KT P6SM OVC045
     FM270700 04006KT P6SM SCT015 OVC020
     FM270900 05007KT 3SM -SHSN SCT015 OVC020
     FM271600 04012KT 1SM -SN OVC004=

USA.gov is the U.S. government's official web portal to all federal, state and local government web resources and services.